Řízení letového provozu České republiky
Letiste: LKNA Aktualizace: 26.08.2016 01:06:07  UTC
 METAR LKNA 26.08. 01:00 ...
METAR LKNA 260100Z 07006KT CAVOK 16/12 Q1023=
 TAF LKNA 25.08. 17:00 ...
TAF LKNA 251700Z 2518/2618 12008KT CAVOK=